0CO3 weather

CLOSED Greggs Nr 1 Airport
Bennett, Colorado, United States

Public forecast

Using degrees Fahrenheit for public forecast. Weather courtesy of forecast.io.

METAR (pilot weather report)

Closest report is Denver International Airport, 6.1 nm (11.3 km) WSW. Retrieved 2019/04/19 15:53 UTC (7 minutes ago):

KDEN 191553Z 00000KT 10SM FEW220 15/M02 A3018 RMK AO2 SLP182 T01501022

TAF (pilot weather forecast)

Closest forecast is Denver International Airport, 6.1 nm (11.3 km) WSW. Retrieved 2019/04/19 12:28 UTC (4 hours ago):

TAF KDEN 191126Z 1912/2018 19009KT P6SM FEW120 FM191400 24005KT P6SM FEW120 FM191800 02007KT P6SM FEW100 FM192300 08006KT P6SM FEW100 FM200200 16006KT P6SM SCT200 FM200600 19007KT P6SM SCT200